Grandville, MI (49468)

12:28 PM EDT on April 28, 2017 (GMT -0400)
Downtown | | Change Station
Active Advisory: Flood Watch Active Notice: Flood Watch

Elev 628 ft 42.91 °N, 85.76 °W | Updated 7 minutes ago

Partly Cloudy
Partly Cloudy
52.4 °F
Feels Like 52.4 °F
N
3.0
Wind Variable Wind from West
Gusts 9.0 mph

Today
High -- | Low -- °F
--% Chance of Precip.
Yesterday
High -- | Low -- °F
Precip. -- in
Pressure 29.98 in
Visibility 10.0 miles
Clouds Mostly Cloudy 2400 ft
Dew Point 44 °F
Humidity 73%
Rainfall 0.00 in
Snow Depth Not available.
6:40 AM 8:40 PM
Waxing Crescent, 7% visible
METAR KGRR 281553Z 22013G16KT 10SM BKN024 12/06 A2996 RMK AO2 SLP150 T01170061
Pressure 29.98 in
Visibility 10.0 miles
Clouds Mostly Cloudy 2400 ft
Dew Point 44 °F
Humidity 73%
Rainfall 0.00 in
Snow Depth Not available.
6:40 AM 8:40 PM
Waxing Crescent, 7% visible
METAR KGRR 281553Z 22013G16KT 10SM BKN024 12/06 A2996 RMK AO2 SLP150 T01170061

Get Your Daily Forecast Email!

Thanks for signing up!

Be on the lookout for a verification email in your inbox.

You'll start receiving severe weather alerts in your inbox..

×

10-Day Weather Forecast

Almanac

Astronomy

Apr. 28, 2017 Rise Set
Actual Time
Civil Twilight
Nautical Twilight
Astronomical Twilight
Moon
Length of Visible Light
Length of Day
Tomorrow will be .
, % of the Moon is Illuminated

Today's Extremes

State Highs State Lows

Community

WunderPhotos

WunderBlog® & News

Nearby

Air Quality

  Air Quality AQ Index Pollutant
Not available.

Snow Depth

Station Depth Elevation

Earthquake Activity

City Distance Mag. Time & Date
Minimum magnitude displayed is 2.5.

Coastal Water Temperatures

Place Temperature

Stations

Nearby Weather Stations

Station Location Temp. Windchill Dew Point Humidity Wind Precip. Elev Updated Type
                   

Watches & Warnings

Flood Watch
Issued: 11:51 AM EDT Apr. 28, 2017 – National Weather Service

The National Weather Service in Grand Rapids has issued a
* Flood Watch for
the Grand River near Comstock Park
* from Tuesday afternoon until further notice.
* At 7:40 am Thursday the stage was 9.9 feet.
* Minor flooding is possible.
* Bankfull stage is 11.0 feet.
* Flood stage is 12.0 feet.
* Forecast, flood stage may be reached by Tuesday early afternoon.
The river is forecast to reach a maximum stage of 13.2 feet by
Thursday morning.
* Impact, at 13.0 feet... abrigador trail is underwater and minor
flooding of homes occurs along abrigador trail and Willow drive.


Lat... Lon 4298 8572 4308 8570 4309 8557 4302 8559
      4303 8562 4297 8563